Aviation Digital Data Service (ADDS)

Output produced by METARs form (1527 UTC 29 April 2017)
found at http://aviationweather.gov/adds/metars/
 
KATL 291356Z 2914/3018 15010KT P6SM BKN050 
     FM291600 17010G20KT P6SM BKN045 
     FM291900 17010G20KT P6SM FEW050 
     FM300200 15006KT P6SM SCT250 
     FM301100 15008KT P6SM SCT035